Time;durP1;ratioP1;P1;durP2;ratioP2;P2;SDS_P1;SDS_P2;PMS_P1;PMS_P2;Temp;Humidity;BMP_temperature;BMP_pressure;BME280_temperature;BME280_humidity;BME280_pressure;Samples;Min_cycle;Max_cycle;Signal;HPM_P1;HPM_P2
2024/01/24 00:00:55;;;;;;;28.15;25.73;;;;;;;;;;5046315;28;20033;-50
2024/01/24 00:03:21;;;;;;;29.30;26.50;;;;;;;;;;5046008;28;20394;-54
2024/01/24 00:05:47;;;;;;;28.45;26.10;;;;;;;;;;5046375;28;20028;-54
2024/01/24 00:08:13;;;;;;;27.55;25.33;;;;;;;;;;5051688;28;20028;-53
2024/01/24 00:10:39;;;;;;;28.10;25.90;;;;;;;;;;5047841;28;20123;-52
2024/01/24 00:13:05;;;;;;;29.83;27.50;;;;;;;;;;5065894;28;20058;-55
2024/01/24 00:15:31;;;;;;;29.83;27.48;;;;;;;;;;5066521;28;20051;-55
2024/01/24 00:17:57;;;;;;;31.67;29.17;;;;;;;;;;5066908;28;20036;-48
2024/01/24 00:20:23;;;;;;;29.77;27.48;;;;;;;;;;5067464;28;20035;-49
2024/01/24 00:22:49;;;;;;;28.15;25.92;;;;;;;;;;5065376;28;20059;-50
2024/01/24 00:25:15;;;;;;;27.63;25.25;;;;;;;;;;5048364;28;20062;-51
2024/01/24 00:27:41;;;;;;;25.63;23.45;;;;;;;;;;5065480;28;20060;-53
2024/01/24 00:30:07;;;;;;;25.05;22.95;;;;;;;;;;5066257;28;20056;-54
2024/01/24 00:32:33;;;;;;;27.98;25.58;;;;;;;;;;5065729;28;20474;-52
2024/01/24 00:34:59;;;;;;;22.90;21.00;;;;;;;;;;5065847;28;20024;-51
2024/01/24 00:37:25;;;;;;;22.08;20.17;;;;;;;;;;5066277;28;20025;-50
2024/01/24 00:39:51;;;;;;;25.35;23.02;;;;;;;;;;5066298;28;20033;-49
2024/01/24 00:42:17;;;;;;;25.75;20.98;;;;;;;;;;5065966;28;20052;-52
2024/01/24 00:44:44;;;;;;;18.65;16.75;;;;;;;;;;5066612;28;20036;-52
2024/01/24 00:47:10;;;;;;;17.08;15.38;;;;;;;;;;5065953;28;20025;-52
2024/01/24 00:49:36;;;;;;;20.42;14.88;;;;;;;;;;5065574;28;20652;-51
2024/01/24 00:52:03;;;;;;;20.92;12.38;;;;;;;;;;5067530;22;20079;-58
2024/01/24 00:54:29;;;;;;;14.53;10.60;;;;;;;;;;5047046;28;20033;-60
2024/01/24 00:56:55;;;;;;;15.63;10.70;;;;;;;;;;5029689;28;20085;-62
2024/01/24 00:59:21;;;;;;;18.60;12.18;;;;;;;;;;5047368;28;20029;-62
2024/01/24 01:01:48;;;;;;;16.83;11.05;;;;;;;;;;5046244;28;20161;-61
2024/01/24 01:04:14;;;;;;;16.63;9.68;;;;;;;;;;5046730;28;20025;-59
2024/01/24 01:06:40;;;;;;;15.18;8.98;;;;;;;;;;5045382;28;20032;-62
2024/01/24 01:09:06;;;;;;;16.02;9.98;;;;;;;;;;5036046;28;20123;-61
2024/01/24 01:11:32;;;;;;;18.58;11.70;;;;;;;;;;5010143;28;20119;-60
2024/01/24 01:13:58;;;;;;;15.05;8.48;;;;;;;;;;5028542;28;20480;-60
2024/01/24 01:16:24;;;;;;;13.00;7.80;;;;;;;;;;5037887;28;20081;-61
2024/01/24 01:18:50;;;;;;;18.83;10.30;;;;;;;;;;5043025;28;20105;-60
2024/01/24 01:21:16;;;;;;;19.23;10.70;;;;;;;;;;5027229;28;20044;-60
2024/01/24 01:23:42;;;;;;;12.55;7.65;;;;;;;;;;5036280;28;20020;-60
2024/01/24 01:26:08;;;;;;;12.35;7.32;;;;;;;;;;5029784;28;20084;-60
2024/01/24 01:28:34;;;;;;;13.90;8.35;;;;;;;;;;5039438;28;20467;-57
2024/01/24 01:31:00;;;;;;;15.95;9.30;;;;;;;;;;5028088;28;20026;-60
2024/01/24 01:33:26;;;;;;;15.48;9.27;;;;;;;;;;5027665;28;20100;-61
2024/01/24 01:35:52;;;;;;;13.20;8.27;;;;;;;;;;5028384;28;20033;-61
2024/01/24 01:38:18;;;;;;;13.05;8.05;;;;;;;;;;5028136;28;20041;-63
2024/01/24 01:40:44;;;;;;;15.48;9.73;;;;;;;;;;5031387;28;20157;-59
2024/01/24 01:43:13;;;;;;;13.40;7.65;;;;;;;;;;5031061;28;20018;-57
2024/01/24 01:45:40;;;;;;;15.90;9.77;;;;;;;;;;5031469;28;20018;-59
2024/01/24 01:48:06;;;;;;;21.92;10.85;;;;;;;;;;5035103;28;20033;-60
2024/01/24 01:50:33;;;;;;;16.75;11.55;;;;;;;;;;5031173;28;20075;-59
2024/01/24 01:52:59;;;;;;;14.85;11.68;;;;;;;;;;5030564;28;20495;-60
2024/01/24 01:55:25;;;;;;;20.13;18.23;;;;;;;;;;5031296;28;20022;-59
2024/01/24 01:57:51;;;;;;;32.75;30.13;;;;;;;;;;5031046;28;20400;-59
2024/01/24 02:00:20;;;;;;;30.63;28.33;;;;;;;;;;5031247;28;20078;-59
2024/01/24 02:02:50;;;;;;;29.77;27.52;;;;;;;;;;5012619;28;20021;-58
2024/01/24 02:05:16;;;;;;;24.88;22.80;;;;;;;;;;5031024;28;20021;-58
2024/01/24 02:07:45;;;;;;;22.20;20.30;;;;;;;;;;5030811;28;20376;-59
2024/01/24 02:10:14;;;;;;;20.83;18.92;;;;;;;;;;5031218;28;20018;-59
2024/01/24 02:12:43;;;;;;;19.60;17.50;;;;;;;;;;5030157;28;20013;-60
2024/01/24 02:15:10;;;;;;;21.27;18.50;;;;;;;;;;5030046;28;20035;-60
2024/01/24 02:17:36;;;;;;;20.70;18.80;;;;;;;;;;5030850;28;20022;-58
2024/01/24 02:20:03;;;;;;;19.95;18.15;;;;;;;;;;5030749;28;20093;-58
2024/01/24 02:22:29;;;;;;;21.48;19.58;;;;;;;;;;5012197;28;20575;-59
2024/01/24 02:24:55;;;;;;;24.00;22.00;;;;;;;;;;5023348;28;20033;-60
2024/01/24 02:27:21;;;;;;;23.42;21.42;;;;;;;;;;5035144;28;20029;-58
2024/01/24 02:29:47;;;;;;;22.88;20.98;;;;;;;;;;5030574;28;20435;-59
2024/01/24 02:32:13;;;;;;;23.38;21.45;;;;;;;;;;5011792;28;20111;-59
2024/01/24 02:34:39;;;;;;;23.38;21.13;;;;;;;;;;5030458;28;20355;-60
2024/01/24 02:37:05;;;;;;;23.90;21.90;;;;;;;;;;5030527;28;20045;-58
2024/01/24 02:39:31;;;;;;;24.35;22.35;;;;;;;;;;5030445;28;20026;-57
2024/01/24 02:41:57;;;;;;;23.00;21.10;;;;;;;;;;5029468;28;20045;-59
2024/01/24 02:44:23;;;;;;;25.67;23.67;;;;;;;;;;5030336;28;20076;-60
2024/01/24 02:46:49;;;;;;;24.35;22.35;;;;;;;;;;5032305;28;20100;-56
2024/01/24 02:49:16;;;;;;;23.30;21.30;;;;;;;;;;5036137;28;20101;-57
2024/01/24 02:51:42;;;;;;;22.60;20.70;;;;;;;;;;5028602;28;20018;-58
2024/01/24 02:54:08;;;;;;;23.92;21.92;;;;;;;;;;5030143;28;20075;-58
2024/01/24 02:56:35;;;;;;;23.50;21.50;;;;;;;;;;5029936;28;20094;-59
2024/01/24 02:59:02;;;;;;;;;;;;;;;;;;5021311;28;20503;-60
2024/01/24 03:01:28;;;;;;;26.20;23.98;;;;;;;;;;5045294;28;19915;-62
2024/01/24 03:03:54;;;;;;;29.17;26.98;;;;;;;;;;5049033;28;20147;-60
2024/01/24 03:06:20;;;;;;;33.65;31.25;;;;;;;;;;5050065;28;20055;-58
2024/01/24 03:08:56;;;;;;;33.22;30.92;;;;;;;;;;5062856;28;20705;-58
2024/01/24 03:11:22;;;;;;;28.70;26.50;;;;;;;;;;5064330;28;20013;-60
2024/01/24 03:13:48;;;;;;;29.65;27.45;;;;;;;;;;5022761;28;20030;-60
2024/01/24 03:16:14;;;;;;;30.15;27.95;;;;;;;;;;5012025;28;20034;-59
2024/01/24 03:18:41;;;;;;;29.40;27.20;;;;;;;;;;5011885;28;20025;-59
2024/01/24 03:21:08;;;;;;;31.00;28.60;;;;;;;;;;5029216;28;20505;-61
2024/01/24 03:23:38;;;;;;;30.77;28.30;;;;;;;;;;5029779;28;20017;-58
2024/01/24 03:26:04;;;;;;;28.95;26.75;;;;;;;;;;5012002;28;20050;-57
2024/01/24 03:28:30;;;;;;;33.05;30.55;;;;;;;;;;5029669;28;20576;-58
2024/01/24 03:30:56;;;;;;;30.95;28.50;;;;;;;;;;5037349;28;20089;-60
2024/01/24 03:33:22;;;;;;;32.17;29.77;;;;;;;;;;5028949;28;20021;-56
2024/01/24 03:35:48;;;;;;;30.10;27.80;;;;;;;;;;5029226;28;20022;-56
2024/01/24 03:38:14;;;;;;;27.98;25.77;;;;;;;;;;5029284;28;20029;-60
2024/01/24 03:40:40;;;;;;;27.67;25.48;;;;;;;;;;5029076;28;20096;-59
2024/01/24 03:43:06;;;;;;;26.13;24.02;;;;;;;;;;5028798;28;20029;-59
2024/01/24 03:45:32;;;;;;;29.15;26.95;;;;;;;;;;5029298;28;20028;-54
2024/01/24 03:47:58;;;;;;;33.60;31.10;;;;;;;;;;5011314;28;20033;-53
2024/01/24 03:50:24;;;;;;;31.20;28.90;;;;;;;;;;5029011;28;20018;-57
2024/01/24 03:52:50;;;;;;;28.33;26.10;;;;;;;;;;5028085;28;20040;-57
2024/01/24 03:55:16;;;;;;;24.77;22.77;;;;;;;;;;5029059;28;20029;-55
2024/01/24 03:57:43;;;;;;;25.40;23.40;;;;;;;;;;5037343;28;20100;-56
2024/01/24 04:00:10;;;;;;;23.05;21.15;;;;;;;;;;5024147;28;20072;-52
2024/01/24 04:02:36;;;;;;;27.17;24.98;;;;;;;;;;5047241;28;20479;-56
2024/01/24 04:05:03;;;;;;;27.20;25.10;;;;;;;;;;5048872;28;20033;-56
2024/01/24 04:07:28;;;;;;;24.80;22.80;;;;;;;;;;5048844;28;20108;-57
2024/01/24 04:09:54;;;;;;;26.42;24.33;;;;;;;;;;5049034;28;20115;-55
2024/01/24 04:12:20;;;;;;;24.40;22.40;;;;;;;;;;5048160;28;20021;-52
2024/01/24 04:14:46;;;;;;;21.80;19.90;;;;;;;;;;5049057;28;20175;-56
2024/01/24 04:17:12;;;;;;;20.63;18.83;;;;;;;;;;5048863;28;20041;-57
2024/01/24 04:19:38;;;;;;;20.55;18.75;;;;;;;;;;5048831;28;20115;-56
2024/01/24 04:22:04;;;;;;;20.40;18.60;;;;;;;;;;5046626;28;20021;-54
2024/01/24 04:24:30;;;;;;;23.70;21.70;;;;;;;;;;5048766;28;20471;-55
2024/01/24 04:26:57;;;;;;;23.15;21.20;;;;;;;;;;5048442;28;20021;-57
2024/01/24 04:29:23;;;;;;;22.15;20.25;;;;;;;;;;5048700;28;20510;-59
2024/01/24 04:31:49;;;;;;;21.65;19.75;;;;;;;;;;5047969;28;20033;-58
2024/01/24 04:34:17;;;;;;;26.98;18.77;;;;;;;;;;5048492;28;20028;-59
2024/01/24 04:36:43;;;;;;;18.33;16.55;;;;;;;;;;5048891;28;20697;-56
2024/01/24 04:39:10;;;;;;;22.60;20.70;;;;;;;;;;5048540;28;20032;-57
2024/01/24 04:41:36;;;;;;;22.90;21.00;;;;;;;;;;5048059;28;20041;-56
2024/01/24 04:44:02;;;;;;;19.95;18.15;;;;;;;;;;5048393;28;20095;-57
2024/01/24 04:46:28;;;;;;;22.30;20.40;;;;;;;;;;5048606;28;20584;-54
2024/01/24 04:48:54;;;;;;;24.77;22.77;;;;;;;;;;5048744;28;20436;-55
2024/01/24 04:51:21;;;;;;;24.63;22.63;;;;;;;;;;5047594;28;20104;-52
2024/01/24 04:53:47;;;;;;;25.60;23.50;;;;;;;;;;5047569;28;20025;-52
2024/01/24 04:56:14;;;;;;;27.63;25.42;;;;;;;;;;5048566;28;20095;-54
2024/01/24 04:58:43;;;;;;;26.17;24.08;;;;;;;;;;5047096;28;20025;-55
2024/01/24 05:01:11;;;;;;;24.80;22.80;;;;;;;;;;5046695;28;20025;-58
2024/01/24 05:03:37;;;;;;;24.25;22.25;;;;;;;;;;5048503;28;20061;-56
2024/01/24 05:06:04;;;;;;;28.95;26.75;;;;;;;;;;5048261;28;20021;-57
2024/01/24 05:08:30;;;;;;;32.67;30.27;;;;;;;;;;5048058;28;20499;-56
2024/01/24 05:10:56;;;;;;;27.90;25.73;;;;;;;;;;5047868;28;20087;-57
2024/01/24 05:13:22;;;;;;;27.13;25.02;;;;;;;;;;5047752;28;20375;-52
2024/01/24 05:15:49;;;;;;;35.72;33.15;;;;;;;;;;5069246;28;20102;-56
2024/01/24 05:18:15;;;;;;;30.88;28.48;;;;;;;;;;5071839;28;20035;-55
2024/01/24 05:20:41;;;;;;;28.92;26.73;;;;;;;;;;5071749;28;20025;-52
2024/01/24 05:23:07;;;;;;;28.20;26.00;;;;;;;;;;5071134;28;20482;-56
2024/01/24 05:25:34;;;;;;;28.45;26.25;;;;;;;;;;5070527;28;20025;-59
2024/01/24 05:28:00;;;;;;;26.90;24.73;;;;;;;;;;5071710;28;20025;-55
2024/01/24 05:30:26;;;;;;;25.52;23.42;;;;;;;;;;5071800;28;20605;-53
2024/01/24 05:32:56;;;;;;;31.95;29.55;;;;;;;;;;5070880;28;20486;-56
2024/01/24 05:35:22;;;;;;;51.78;48.17;;;;;;;;;;5071592;28;20490;-57
2024/01/24 05:37:48;;;;;;;45.25;42.15;;;;;;;;;;5071980;28;20029;-56
2024/01/24 05:40:14;;;;;;;39.45;36.55;;;;;;;;;;5071497;28;20336;-53
2024/01/24 05:42:40;;;;;;;37.88;35.08;;;;;;;;;;5070769;28;20071;-56
2024/01/24 05:45:06;;;;;;;45.28;42.08;;;;;;;;;;5071161;28;20458;-54
2024/01/24 05:47:32;;;;;;;43.53;40.42;;;;;;;;;;5071475;28;20103;-56
2024/01/24 05:49:59;;;;;;;32.92;30.42;;;;;;;;;;5071585;28;20375;-57
2024/01/24 05:52:25;;;;;;;28.05;25.85;;;;;;;;;;5069182;28;20035;-55
2024/01/24 05:54:51;;;;;;;27.45;25.25;;;;;;;;;;5071372;28;20025;-55
2024/01/24 05:57:17;;;;;;;27.20;25.02;;;;;;;;;;5071515;28;20031;-56
2024/01/24 05:59:43;;;;;;;26.45;24.35;;;;;;;;;;5070097;28;20123;-54
2024/01/24 06:02:09;;;;;;;25.30;23.20;;;;;;;;;;5070318;28;20125;-55
2024/01/24 06:04:35;;;;;;;26.17;24.08;;;;;;;;;;5071068;28;20029;-53
2024/01/24 06:07:02;;;;;;;23.45;21.45;;;;;;;;;;5070972;28;20047;-50
2024/01/24 06:09:28;;;;;;;23.83;21.73;;;;;;;;;;5070941;28;20459;-55
2024/01/24 06:11:54;;;;;;;20.50;18.50;;;;;;;;;;5070305;28;20475;-57
2024/01/24 06:14:20;;;;;;;22.25;20.23;;;;;;;;;;5069588;28;20031;-56
2024/01/24 06:16:46;;;;;;;16.30;13.00;;;;;;;;;;5070694;28;20104;-54
2024/01/24 06:19:12;;;;;;;15.23;10.15;;;;;;;;;;5070718;28;20040;-55
2024/01/24 06:21:38;;;;;;;16.70;10.63;;;;;;;;;;5070023;28;20056;-57
2024/01/24 06:24:08;;;;;;;13.93;9.60;;;;;;;;;;5070694;28;20047;-55
2024/01/24 06:26:34;;;;;;;20.23;9.32;;;;;;;;;;5069490;28;20047;-58
2024/01/24 06:29:00;;;;;;;14.10;9.60;;;;;;;;;;5070876;28;20561;-58
2024/01/24 06:31:26;;;;;;;18.85;11.93;;;;;;;;;;5069623;28;20052;-60
2024/01/24 06:33:52;;;;;;;15.88;9.35;;;;;;;;;;5070698;28;20486;-57
2024/01/24 06:36:18;;;;;;;16.00;8.32;;;;;;;;;;5070538;28;20025;-59
2024/01/24 06:38:44;;;;;;;13.52;8.20;;;;;;;;;;5070488;28;20025;-58
2024/01/24 06:41:11;;;;;;;13.15;7.70;;;;;;;;;;5067986;28;20028;-55
2024/01/24 06:43:40;;;;;;;15.43;9.25;;;;;;;;;;5070533;28;20055;-58
2024/01/24 06:46:06;;;;;;;15.65;10.75;;;;;;;;;;5070276;28;20510;-57
2024/01/24 06:48:32;;;;;;;16.23;9.77;;;;;;;;;;5069924;28;20032;-59
2024/01/24 06:50:58;;;;;;;14.23;9.02;;;;;;;;;;5069614;28;20552;-59
2024/01/24 06:53:24;;;;;;;16.35;10.35;;;;;;;;;;5075022;22;20533;-48
2024/01/24 06:55:50;;;;;;;14.70;8.35;;;;;;;;;;5049786;28;20035;-54
2024/01/24 06:58:17;;;;;;;15.00;9.35;;;;;;;;;;5031313;28;20020;-53
2024/01/24 07:00:43;;;;;;;13.93;8.85;;;;;;;;;;5050593;28;20124;-51
2024/01/24 07:03:09;;;;;;;22.55;9.57;;;;;;;;;;5050247;28;20100;-49
2024/01/24 07:05:35;;;;;;;12.82;7.63;;;;;;;;;;5050918;28;20029;-53
2024/01/24 07:08:01;;;;;;;13.50;8.40;;;;;;;;;;5051016;28;20087;-51
2024/01/24 07:10:27;;;;;;;15.68;8.35;;;;;;;;;;5035932;28;20053;-50
2024/01/24 07:12:53;;;;;;;14.25;7.60;;;;;;;;;;5030513;28;20044;-51
2024/01/24 07:15:20;;;;;;;27.17;10.38;;;;;;;;;;5031198;28;20522;-50
2024/01/24 07:17:46;;;;;;;17.15;9.82;;;;;;;;;;5030803;28;20446;-52
2024/01/24 07:20:13;;;;;;;13.50;8.40;;;;;;;;;;5031025;28;20026;-53
2024/01/24 07:22:39;;;;;;;18.00;9.00;;;;;;;;;;5030002;28;20028;-54
2024/01/24 07:25:08;;;;;;;17.40;9.00;;;;;;;;;;5046062;28;20025;-54
2024/01/24 07:27:35;;;;;;;18.65;9.85;;;;;;;;;;5046040;28;20032;-49
2024/01/24 07:30:04;;;;;;;11.70;6.85;;;;;;;;;;5042606;28;20025;-51
2024/01/24 07:32:30;;;;;;;;;;;;;;;;;;5050078;28;20013;-54
2024/01/24 07:34:55;;;;;;;12.52;7.20;;;;;;;;;;5047158;28;20394;-52
2024/01/24 07:37:21;;;;;;;13.73;8.05;;;;;;;;;;5042747;28;20054;-51
2024/01/24 07:39:47;;;;;;;21.30;9.27;;;;;;;;;;5051869;28;20443;-54
2024/01/24 07:42:14;;;;;;;12.32;6.93;;;;;;;;;;5049562;28;20064;-52
2024/01/24 07:44:41;;;;;;;13.85;7.47;;;;;;;;;;5050484;28;20029;-56
2024/01/24 07:47:07;;;;;;;15.75;9.00;;;;;;;;;;5045332;28;20061;-52
2024/01/24 07:49:33;;;;;;;26.77;10.50;;;;;;;;;;5030283;28;20056;-50
2024/01/24 07:51:59;;;;;;;12.85;7.50;;;;;;;;;;5029177;28;20480;-55
2024/01/24 07:54:25;;;;;;;15.10;8.77;;;;;;;;;;5035494;28;20432;-54
2024/01/24 07:56:53;;;;;;;15.88;7.57;;;;;;;;;;5050086;28;20110;-51
2024/01/24 07:59:19;;;;;;;12.90;7.53;;;;;;;;;;5048605;28;20467;-52
2024/01/24 08:01:48;;;;;;;16.85;7.85;;;;;;;;;;5049230;28;20029;-50
2024/01/24 08:04:14;;;;;;;13.18;7.93;;;;;;;;;;5048530;28;20120;-55
2024/01/24 08:06:41;;;;;;;12.18;7.35;;;;;;;;;;5049625;28;20419;-51
2024/01/24 08:09:08;;;;;;;16.20;8.05;;;;;;;;;;5048591;28;20025;-51
2024/01/24 08:11:34;;;;;;;15.30;9.57;;;;;;;;;;5044303;28;20044;-52
2024/01/24 08:14:00;;;;;;;24.02;9.85;;;;;;;;;;5028603;28;20071;-55
2024/01/24 08:16:26;;;;;;;20.42;9.30;;;;;;;;;;5037971;28;20036;-53
2024/01/24 08:18:53;;;;;;;14.00;8.10;;;;;;;;;;5049773;28;20024;-52
2024/01/24 08:21:19;;;;;;;18.67;8.18;;;;;;;;;;5049037;28;20025;-54
2024/01/24 08:23:45;;;;;;;15.75;7.30;;;;;;;;;;5049650;28;20036;-54
2024/01/24 08:26:12;;;;;;;17.13;7.53;;;;;;;;;;5049339;28;20058;-53
2024/01/24 08:28:38;;;;;;;18.83;9.18;;;;;;;;;;5049395;28;20379;-54
2024/01/24 08:31:04;;;;;;;18.48;12.73;;;;;;;;;;5048366;28;20028;-54
2024/01/24 08:33:32;;;;;;;13.93;7.90;;;;;;;;;;5047514;28;20028;-55
2024/01/24 08:35:58;;;;;;;15.25;8.75;;;;;;;;;;5048604;28;20041;-54
2024/01/24 08:38:24;;;;;;;12.27;7.38;;;;;;;;;;5042448;28;20404;-54
2024/01/24 08:40:50;;;;;;;14.77;9.02;;;;;;;;;;5029339;28;20028;-55
2024/01/24 08:43:16;;;;;;;21.10;9.73;;;;;;;;;;5027735;28;20033;-55
2024/01/24 08:45:42;;;;;;;21.80;9.18;;;;;;;;;;5028094;28;20025;-55
2024/01/24 08:48:08;;;;;;;23.35;10.63;;;;;;;;;;5029275;28;20025;-53
2024/01/24 08:50:34;;;;;;;15.52;7.45;;;;;;;;;;5032200;28;20021;-52
2024/01/24 08:53:00;;;;;;;15.30;8.15;;;;;;;;;;5032719;28;20037;-53
2024/01/24 08:55:27;;;;;;;21.50;8.55;;;;;;;;;;5033907;28;20484;-54
2024/01/24 08:57:53;;;;;;;13.93;8.63;;;;;;;;;;5034555;28;20112;-56
2024/01/24 09:00:19;;;;;;;22.58;10.25;;;;;;;;;;5037251;28;20541;-55
2024/01/24 09:02:46;;;;;;;29.38;8.70;;;;;;;;;;5053264;28;20498;-56
2024/01/24 09:05:13;;;;;;;21.77;8.93;;;;;;;;;;5053956;28;20475;-52
2024/01/24 09:07:38;;;;;;;14.15;8.48;;;;;;;;;;5052546;28;20040;-51
2024/01/24 09:10:06;;;;;;;19.05;9.10;;;;;;;;;;5053558;28;20216;-56
2024/01/24 09:12:32;;;;;;;14.50;9.63;;;;;;;;;;5052983;28;20104;-51
2024/01/24 09:14:58;;;;;;;20.80;9.48;;;;;;;;;;5053552;28;20049;-52
2024/01/24 09:17:24;;;;;;;15.82;9.98;;;;;;;;;;5053250;28;20058;-50
2024/01/24 09:19:50;;;;;;;22.23;11.10;;;;;;;;;;5053717;28;20070;-54
2024/01/24 09:22:16;;;;;;;16.25;9.30;;;;;;;;;;5051351;28;20029;-57
2024/01/24 09:24:42;;;;;;;14.85;8.65;;;;;;;;;;5053441;28;20440;-56
2024/01/24 09:27:08;;;;;;;12.05;7.07;;;;;;;;;;5053486;28;20151;-54
2024/01/24 09:29:34;;;;;;;17.98;8.90;;;;;;;;;;5053371;28;20112;-57
2024/01/24 09:32:00;;;;;;;23.42;9.27;;;;;;;;;;5052287;28;20202;-61
2024/01/24 09:34:26;;;;;;;15.35;8.13;;;;;;;;;;5052852;28;20020;-56
2024/01/24 09:36:55;;;;;;;15.07;7.93;;;;;;;;;;5052956;28;20056;-60
2024/01/24 09:39:22;;;;;;;13.25;7.82;;;;;;;;;;4698737;28;9999756;-59
2024/01/24 09:41:51;;;;;;;14.77;7.75;;;;;;;;;;5041800;28;20084;-57
2024/01/24 09:44:17;;;;;;;13.93;8.60;;;;;;;;;;5058207;28;20031;-62
2024/01/24 09:46:43;;;;;;;17.55;9.55;;;;;;;;;;5047378;28;20033;-56
2024/01/24 09:49:14;;;;;;;17.88;10.32;;;;;;;;;;5048810;28;20478;-60
2024/01/24 09:51:41;;;;;;;13.90;8.35;;;;;;;;;;5048040;28;20659;-56
2024/01/24 09:54:07;;;;;;;16.00;9.18;;;;;;;;;;5044001;28;20028;-57
2024/01/24 09:56:35;;;;;;;14.73;9.13;;;;;;;;;;5046772;28;20052;-59
2024/01/24 09:59:02;;;;;;;13.48;8.00;;;;;;;;;;5030920;28;20025;-58
2024/01/24 10:01:29;;;;;;;14.55;8.23;;;;;;;;;;5029801;28;20033;-56
2024/01/24 10:03:56;;;;;;;15.57;9.33;;;;;;;;;;5031989;28;20032;-59
2024/01/24 10:06:22;;;;;;;13.50;8.18;;;;;;;;;;5031713;28;20025;-61
2024/01/24 10:08:48;;;;;;;14.68;8.60;;;;;;;;;;5031819;28;20079;-59
2024/01/24 10:11:14;;;;;;;26.33;9.35;;;;;;;;;;5031030;28;20475;-57
2024/01/24 10:13:40;;;;;;;13.40;8.00;;;;;;;;;;5037135;28;20013;-54
2024/01/24 10:16:07;;;;;;;13.18;7.80;;;;;;;;;;5051625;28;20043;-57
2024/01/24 10:18:33;;;;;;;13.60;8.20;;;;;;;;;;5052243;28;20429;-57
2024/01/24 10:21:03;;;;;;;16.25;10.20;;;;;;;;;;5051626;28;20078;-59
2024/01/24 10:23:30;;;;;;;19.63;10.23;;;;;;;;;;5049814;28;20025;-58
2024/01/24 10:25:56;;;;;;;18.48;8.85;;;;;;;;;;5051113;28;20594;-56
2024/01/24 10:28:23;;;;;;;20.23;8.65;;;;;;;;;;5051489;28;20557;-58
2024/01/24 10:30:49;;;;;;;13.93;8.27;;;;;;;;;;5051808;28;20048;-56
2024/01/24 10:33:16;;;;;;;15.30;8.98;;;;;;;;;;5051507;28;20552;-56
2024/01/24 10:35:44;;;;;;;14.57;8.25;;;;;;;;;;5052369;28;20396;-56
2024/01/24 10:38:12;;;;;;;18.58;8.52;;;;;;;;;;5051551;28;20024;-58
2024/01/24 10:40:40;;;;;;;23.92;10.32;;;;;;;;;;5051616;28;20096;-58
2024/01/24 10:43:09;;;;;;;17.23;9.05;;;;;;;;;;5033202;28;20021;-60
2024/01/24 10:45:35;;;;;;;16.05;9.30;;;;;;;;;;5051662;28;20036;-60
2024/01/24 10:48:01;;;;;;;22.10;9.43;;;;;;;;;;5051662;28;20040;-57
2024/01/24 10:50:27;;;;;;;17.20;9.57;;;;;;;;;;5051599;28;20017;-54
2024/01/24 10:52:53;;;;;;;20.02;10.00;;;;;;;;;;5049464;28;20036;-58
2024/01/24 10:55:21;;;;;;;22.58;12.38;;;;;;;;;;5051384;28;20048;-58
2024/01/24 10:57:47;;;;;;;17.67;8.45;;;;;;;;;;5051310;28;20402;-58
2024/01/24 11:00:15;;;;;;;15.57;10.30;;;;;;;;;;5051396;28;20047;-58
2024/01/24 11:02:42;;;;;;;16.85;9.40;;;;;;;;;;5050501;28;20100;-57
2024/01/24 11:05:10;;;;;;;13.35;7.75;;;;;;;;;;5051730;28;20036;-58
2024/01/24 11:07:37;;;;;;;;;;;;;;;;;;5053218;28;20048;-54
2024/01/24 11:10:23;;;;;;;14.50;8.43;;;;;;;;;;5051144;28;20019;-57
2024/01/24 11:12:49;;;;;;;16.48;8.38;;;;;;;;;;5049579;28;20029;-58
2024/01/24 11:15:15;;;;;;;15.27;8.77;;;;;;;;;;5051111;28;20071;-59
2024/01/24 11:17:46;;;;;;;14.02;7.90;;;;;;;;;;5051118;28;20391;-57
2024/01/24 11:20:12;;;;;;;19.08;9.27;;;;;;;;;;5049812;28;20025;-57
2024/01/24 11:22:38;;;;;;;13.65;7.60;;;;;;;;;;5050251;28;20492;-60
2024/01/24 11:25:04;;;;;;;22.02;10.32;;;;;;;;;;5050601;28;20108;-57
2024/01/24 11:27:34;;;;;;;19.00;9.05;;;;;;;;;;5050556;28;20037;-60
2024/01/24 11:30:17;;;;;;;14.52;9.57;;;;;;;;;;5050722;28;20364;-59
2024/01/24 11:32:55;;;;;;;16.33;9.57;;;;;;;;;;5050036;28;20029;-57
2024/01/24 11:35:37;;;;;;;20.10;10.77;;;;;;;;;;5050798;28;20021;-56
2024/01/24 11:38:09;;;;;;;16.23;8.65;;;;;;;;;;5050475;28;20029;-58
2024/01/24 11:40:37;;;;;;;20.73;9.23;;;;;;;;;;5049351;28;20032;-59
2024/01/24 11:43:04;;;;;;;23.60;10.65;;;;;;;;;;5049535;28;20029;-58
2024/01/24 11:45:30;;;;;;;15.93;9.52;;;;;;;;;;5050384;28;20033;-56
2024/01/24 11:47:57;;;;;;;14.43;8.40;;;;;;;;;;5050206;28;20106;-56
2024/01/24 11:50:23;;;;;;;13.35;7.95;;;;;;;;;;5050319;28;20032;-59
2024/01/24 11:52:50;;;;;;;13.10;8.00;;;;;;;;;;5049247;28;20033;-59
2024/01/24 11:55:16;;;;;;;20.52;9.80;;;;;;;;;;5050317;28;20044;-60
2024/01/24 11:57:42;;;;;;;20.38;10.10;;;;;;;;;;5050707;28;20028;-57
2024/01/24 12:00:09;;;;;;;19.42;7.93;;;;;;;;;;5050547;28;20041;-52
2024/01/24 12:02:35;;;;;;;14.00;7.82;;;;;;;;;;5049582;28;20024;-60
2024/01/24 12:05:01;;;;;;;14.52;8.18;;;;;;;;;;5050475;28;20029;-57
2024/01/24 12:07:27;;;;;;;15.68;8.63;;;;;;;;;;5050391;28;20029;-60
2024/01/24 12:09:54;;;;;;;26.52;9.55;;;;;;;;;;5050381;28;20029;-58
2024/01/24 12:12:20;;;;;;;16.42;8.93;;;;;;;;;;5049250;28;20491;-56
2024/01/24 12:14:46;;;;;;;19.13;9.18;;;;;;;;;;5049915;28;20129;-55
2024/01/24 12:17:12;;;;;;;15.82;9.07;;;;;;;;;;5049931;28;20405;-57
2024/01/24 12:19:43;;;;;;;13.85;8.50;;;;;;;;;;5049814;28;20033;-58
2024/01/24 12:22:10;;;;;;;22.92;8.55;;;;;;;;;;5049103;28;20028;-58
2024/01/24 12:24:40;;;;;;;20.30;8.48;;;;;;;;;;5048512;28;20531;-59
2024/01/24 12:27:07;;;;;;;17.92;8.77;;;;;;;;;;5048232;28;20395;-59
2024/01/24 12:29:33;;;;;;;14.48;8.55;;;;;;;;;;5049601;28;20024;-59
2024/01/24 12:32:00;;;;;;;24.77;9.48;;;;;;;;;;5048846;28;20586;-60
2024/01/24 12:34:29;;;;;;;20.50;9.80;;;;;;;;;;5049303;28;20025;-58
2024/01/24 12:36:55;;;;;;;30.48;10.30;;;;;;;;;;5049753;28;20086;-57
2024/01/24 12:39:34;;;;;;;14.95;7.20;;;;;;;;;;5049638;28;20032;-59
2024/01/24 12:42:03;;;;;;;13.45;7.90;;;;;;;;;;5049048;28;20021;-58
2024/01/24 12:44:29;;;;;;;15.18;8.63;;;;;;;;;;5049222;28;20055;-59
2024/01/24 12:46:59;;;;;;;14.85;9.25;;;;;;;;;;5049213;28;20108;-59
2024/01/24 12:49:25;;;;;;;17.58;9.25;;;;;;;;;;5049657;28;20060;-58
2024/01/24 12:54:20;;;;;;;24.45;9.20;;;;;;;;;;5047874;28;20049;-56
2024/01/24 12:56:47;;;;;;;22.15;8.98;;;;;;;;;;5049034;28;20029;-57
2024/01/24 12:59:13;;;;;;;19.00;9.57;;;;;;;;;;5049004;28;20083;-58
2024/01/24 13:01:39;;;;;;;17.40;9.55;;;;;;;;;;5047895;28;20028;-58
2024/01/24 13:04:06;;;;;;;15.65;7.97;;;;;;;;;;5047919;28;20503;-56
2024/01/24 13:06:32;;;;;;;13.95;8.82;;;;;;;;;;5048119;28;20521;-55
2024/01/24 13:08:58;;;;;;;23.13;10.27;;;;;;;;;;5049280;28;20100;-57
2024/01/24 13:11:24;;;;;;;22.33;9.60;;;;;;;;;;5064748;28;20173;-57
2024/01/24 13:13:50;;;;;;;14.43;9.07;;;;;;;;;;5050301;28;20048;-55
2024/01/24 13:16:16;;;;;;;23.13;9.02;;;;;;;;;;5049662;28;20017;-58
2024/01/24 13:18:42;;;;;;;15.18;8.52;;;;;;;;;;5049895;28;20021;-56
2024/01/24 13:21:08;;;;;;;19.25;8.85;;;;;;;;;;5049191;28;20033;-58
2024/01/24 13:23:34;;;;;;;12.63;7.57;;;;;;;;;;5049195;28;20394;-58
2024/01/24 13:26:00;;;;;;;16.10;8.95;;;;;;;;;;5047688;28;20102;-54
2024/01/24 13:28:26;;;;;;;18.60;9.48;;;;;;;;;;5045404;28;20060;-55
2024/01/24 13:30:52;;;;;;;17.40;9.60;;;;;;;;;;5047624;28;20475;-57
2024/01/24 13:33:18;;;;;;;12.40;7.35;;;;;;;;;;5048457;28;20051;-56
2024/01/24 13:35:44;;;;;;;14.45;8.80;;;;;;;;;;5048138;28;20025;-56
2024/01/24 13:38:10;;;;;;;14.30;7.93;;;;;;;;;;5051079;28;20069;-59
2024/01/24 13:40:36;;;;;;;17.00;10.85;;;;;;;;;;5049930;28;20021;-57
2024/01/24 13:43:02;;;;;;;24.33;9.43;;;;;;;;;;5050556;28;20162;-58
2024/01/24 13:45:28;;;;;;;17.20;8.40;;;;;;;;;;5049632;28;20104;-61
2024/01/24 13:47:54;;;;;;;14.70;8.60;;;;;;;;;;5049631;28;20238;-59
2024/01/24 13:50:20;;;;;;;17.00;8.02;;;;;;;;;;5050409;28;20289;-58
2024/01/24 13:52:46;;;;;;;18.58;9.57;;;;;;;;;;5049342;28;20037;-58
2024/01/24 13:55:12;;;;;;;13.50;8.25;;;;;;;;;;5050944;28;20025;-58
2024/01/24 13:57:38;;;;;;;17.25;9.95;;;;;;;;;;5050948;28;20032;-58
2024/01/24 14:00:06;;;;;;;13.43;8.00;;;;;;;;;;5051829;28;20025;-57
2024/01/24 14:02:32;;;;;;;13.40;7.68;;;;;;;;;;5051125;28;20025;-56
2024/01/24 14:04:58;;;;;;;24.73;8.48;;;;;;;;;;5051422;28;20087;-59
2024/01/24 14:07:24;;;;;;;13.05;7.68;;;;;;;;;;5051554;28;20029;-57
2024/01/24 14:09:50;;;;;;;15.10;8.95;;;;;;;;;;5051749;28;20051;-57
2024/01/24 14:12:16;;;;;;;19.08;11.35;;;;;;;;;;5050487;28;20029;-60
2024/01/24 14:14:42;;;;;;;26.75;9.13;;;;;;;;;;5051270;28;20078;-57
2024/01/24 14:17:08;;;;;;;18.05;8.43;;;;;;;;;;5049966;28;20033;-54
2024/01/24 14:19:37;;;;;;;13.20;7.88;;;;;;;;;;5051559;28;20094;-57
2024/01/24 14:22:03;;;;;;;24.88;10.07;;;;;;;;;;5050045;28;20070;-54